バルセロナ の空港の天気 - METARとTAF

バルセロナ・エル・プラット国際空港 ( LEBL / BCN ) - スペイン バルセロナ
飛行場実況気象(Metar)
観測時間08/16 08:30 CEST (08/16 06:30 UTC)
風向・風速北西 3m/s
視程10km以上
天気現象
少しの雲 雲底高度 910m
気温24℃
湿度78%
気圧1016hPa
METARLEBL 160630Z 32005KT 270V350 9999 FEW030 24/20 Q1016 NOSIG
過去の天気等 Google飛行場航空写真 Wunderground天気予報

過去48時間のMETAR

飛行場予報(TAF)
発表時間: 8/16 07:00 CEST (8/16 05:00 UTC)
予報対象時間: 16日8時 CEST ~ 17日8時 CEST
風向・風速北北西 4m/s
視程10km以上
全天の4割程度の雲 雲底高度 910m
16日10時 CEST ~ 16日12時 CEST に徐々に
風向・風速南南西 5m/s
16日14時 CEST ~ 16日23時 CEST に 確率 40% で一時的に
少しの積乱雲 雲底高度 910m
16日18時 CEST ~ 16日23時 CEST に 確率 30% で一時的に
視程4000m
天気現象しゅう雨
16日20時 CEST ~ 16日22時 CEST に徐々に
風向・風速北北西 2m/s
TAF LEBL 160500Z 1606/1706 33008KT 9999 SCT030 TX30/1612Z TN22/1606Z
BECMG 1608/1610 21010KT
PROB40 TEMPO 1612/1621 FEW030CB
PROB30 TEMPO 1616/1621 4000 SHRA
BECMG 1618/1620 33004KT